Time;durP1;ratioP1;P1;durP2;ratioP2;P2;SDS_P1;SDS_P2;PMS_P1;PMS_P2;Temp;Humidity;BMP_temperature;BMP_pressure;BME280_temperature;BME280_humidity;BME280_pressure;Samples;Min_cycle;Max_cycle;Signal;HPM_P1;HPM_P2
2024/02/20 00:03:35;;;;;;;10.70;7.40;;;;;;;8.56;73.79;99387.77;231794;198;138055;-67
2024/02/20 00:08:39;;;;;;;13.00;7.80;;;;;;;8.57;73.67;99391.81;231963;197;153918;-67
2024/02/20 00:13:43;;;;;;;9.90;7.20;;;;;;;8.53;73.66;99396.21;231788;204;141870;-67
2024/02/20 00:18:46;;;;;;;13.00;8.10;;;;;;;8.47;73.72;99401.09;231843;198;138091;-65
2024/02/20 00:23:50;;;;;;;15.10;8.00;;;;;;;8.46;73.74;99406.99;231784;198;153403;-67
2024/02/20 00:28:53;;;;;;;11.10;7.30;;;;;;;8.54;73.81;99400.77;231915;201;138860;-65
2024/02/20 00:33:56;;;;;;;11.30;7.20;;;;;;;8.60;73.69;99402.25;231815;198;139993;-65
2024/02/20 00:39:00;;;;;;;11.60;7.50;;;;;;;8.70;73.50;99401.25;231825;199;153110;-65
2024/02/20 00:44:03;;;;;;;13.70;7.50;;;;;;;8.74;73.17;99398.04;231773;201;138440;-66
2024/02/20 00:49:07;;;;;;;13.70;7.50;;;;;;;8.69;72.86;99394.90;231758;201;141689;-65
2024/02/20 00:54:11;;;;;;;11.00;7.30;;;;;;;8.64;72.90;99390.95;231708;205;154422;-65
2024/02/20 00:59:14;;;;;;;11.20;6.90;;;;;;;8.58;73.00;99383.63;231837;205;137674;-65
2024/02/20 01:04:17;;;;;;;8.90;6.10;;;;;;;8.52;72.97;99386.56;231953;201;139311;-66
2024/02/20 01:09:21;;;;;;;10.60;5.90;;;;;;;8.46;73.16;99387.21;231861;201;153028;-65
2024/02/20 01:14:24;;;;;;;12.10;6.80;;;;;;;8.42;73.49;99382.63;231751;198;137952;-66
2024/02/20 01:19:27;;;;;;;8.30;6.10;;;;;;;8.42;73.44;99386.70;231695;201;138319;-66
2024/02/20 01:24:31;;;;;;;10.70;5.80;;;;;;;8.37;73.26;99384.09;231804;199;154075;-66
2024/02/20 01:29:34;;;;;;;10.60;5.90;;;;;;;8.36;73.23;99382.17;231841;201;138684;-67
2024/02/20 01:34:37;;;;;;;10.00;5.70;;;;;;;8.29;73.20;99378.96;231876;198;137728;-65
2024/02/20 01:39:41;;;;;;;9.60;5.90;;;;;;;8.23;73.31;99377.45;231790;205;153252;-64
2024/02/20 01:44:44;;;;;;;9.70;5.40;;;;;;;8.23;73.25;99374.31;231826;198;139122;-65
2024/02/20 01:49:49;;;;;;;7.70;4.80;;;;;;;8.21;73.12;99371.02;231671;204;139448;-65
2024/02/20 01:54:59;;;;;;;8.10;5.00;;;;;;;8.23;73.06;99367.59;231503;201;154466;-65
2024/02/20 02:00:05;;;;;;;7.70;4.10;;;;;;;8.25;72.83;99368.73;231929;202;138448;-66
2024/02/20 02:05:14;;;;;;;9.10;4.00;;;;;;;8.19;72.69;99367.20;232072;198;138120;-65
2024/02/20 02:10:18;;;;;;;5.40;3.20;;;;;;;8.15;72.79;99364.05;231902;197;153948;-66
2024/02/20 02:15:21;;;;;;;6.50;3.30;;;;;;;8.16;72.74;99350.77;232097;197;139147;-66
2024/02/20 02:20:24;;;;;;;5.00;2.80;;;;;;;8.18;72.44;99354.59;232056;204;137180;-64
2024/02/20 02:25:27;;;;;;;5.20;2.60;;;;;;;8.12;72.22;99358.36;232004;198;153220;-65
2024/02/20 02:30:31;;;;;;;5.20;2.50;;;;;;;8.08;72.25;99356.82;232030;202;138481;-63
2024/02/20 02:35:34;;;;;;;4.50;2.60;;;;;;;8.11;72.20;99356.27;232295;201;137821;-62
2024/02/20 02:40:38;;;;;;;4.50;2.30;;;;;;;8.13;72.22;99359.21;232226;200;153878;-63
2024/02/20 02:45:41;;;;;;;5.10;3.00;;;;;;;8.13;72.21;99358.52;232115;204;138417;-66
2024/02/20 02:50:44;;;;;;;4.70;2.90;;;;;;;8.13;72.17;99359.20;232078;204;138590;-65
2024/02/20 02:55:48;;;;;;;6.30;2.80;;;;;;;8.11;72.17;99363.91;231962;201;154455;-64
2024/02/20 03:00:51;;;;;;;4.40;2.60;;;;;;;8.08;72.32;99368.96;231910;204;139035;-65
2024/02/20 03:05:54;;;;;;;5.00;2.90;;;;;;;8.06;72.58;99371.36;232010;204;138562;-65
2024/02/20 03:10:58;;;;;;;6.20;3.00;;;;;;;8.16;72.48;99374.62;231916;204;152863;-64
2024/02/20 03:16:08;;;;;;;6.80;3.20;;;;;;;8.25;72.36;99371.91;231736;204;264416;-66
2024/02/20 03:21:11;;;;;;;4.60;2.90;;;;;;;8.22;72.42;99376.97;232041;204;137266;-64
2024/02/20 03:26:14;;;;;;;3.90;2.50;;;;;;;8.17;72.63;99381.29;231731;201;153156;-65
2024/02/20 03:31:17;;;;;;;4.60;2.90;;;;;;;8.11;72.96;99380.50;231932;201;137244;-65
2024/02/20 03:36:21;;;;;;;7.20;3.20;;;;;;;8.10;73.45;99381.45;232079;200;137632;-65
2024/02/20 03:41:24;;;;;;;7.30;3.40;;;;;;;8.09;73.70;99380.95;232015;198;153130;-65
2024/02/20 03:46:29;;;;;;;4.50;2.80;;;;;;;8.12;73.90;99378.00;232115;201;140932;-65
2024/02/20 03:51:33;;;;;;;6.30;3.10;;;;;;;8.24;73.98;99382.54;231944;198;139233;-65
2024/02/20 03:56:36;;;;;;;6.50;2.80;;;;;;;8.35;73.93;99379.74;231903;197;153365;-66
2024/02/20 04:01:39;;;;;;;5.20;2.80;;;;;;;8.34;73.76;99380.51;231897;201;138291;-64
2024/02/20 04:06:44;;;;;;;4.80;3.10;;;;;;;8.34;73.76;99387.21;231823;198;138577;-66
2024/02/20 04:11:48;;;;;;;46.70;33.10;;;;;;;8.42;75.28;99384.89;231942;198;154493;-66
2024/02/20 04:16:51;;;;;;;5.10;3.50;;;;;;;8.62;74.59;99384.86;231938;201;141978;-64
2024/02/20 04:21:55;;;;;;;6.00;2.90;;;;;;;8.52;73.76;99381.96;232042;204;137528;-67
2024/02/20 04:26:58;;;;;;;4.50;2.80;;;;;;;8.44;73.70;99380.58;231832;198;153892;-64
2024/02/20 04:32:01;;;;;;;4.90;2.90;;;;;;;8.44;73.79;99385.71;231798;202;137777;-66
2024/02/20 04:37:04;;;;;;;7.10;3.40;;;;;;;8.52;73.73;99380.73;231746;198;139447;-62
2024/02/20 04:42:08;;;;;;;5.30;3.00;;;;;;;8.57;73.42;99382.82;231980;202;154018;-63
2024/02/20 04:47:11;;;;;;;63.90;49.30;;;;;;;8.55;73.64;99386.95;231958;198;138137;-66
2024/02/20 04:52:14;;;;;;;6.10;4.50;;;;;;;8.58;73.69;99386.64;231967;200;138388;-65
2024/02/20 04:57:18;;;;;;;10.30;4.00;;;;;;;8.63;73.52;99384.29;231898;205;153100;-63
2024/02/20 05:02:21;;;;;;;4.90;3.40;;;;;;;8.55;73.42;99382.68;232100;200;140114;-63
2024/02/20 05:07:24;;;;;;;5.50;3.80;;;;;;;8.50;73.59;99381.01;231990;198;137276;-63
2024/02/20 05:12:28;;;;;;;5.80;3.70;;;;;;;8.54;73.59;99386.27;232035;204;153289;-63
2024/02/20 05:17:31;;;;;;;4.90;3.90;;;;;;;8.65;73.40;99388.07;231843;199;137405;-63
2024/02/20 05:22:34;;;;;;;6.70;4.30;;;;;;;8.65;73.32;99394.59;231975;201;139867;-62
2024/02/20 05:27:37;;;;;;;118.80;89.70;;;;;;;8.67;73.26;99394.11;231951;201;153113;-60
2024/02/20 05:32:40;;;;;;;8.30;5.40;;;;;;;8.68;73.52;99396.23;231859;204;138191;-65
2024/02/20 05:37:44;;;;;;;5.40;4.10;;;;;;;8.64;73.35;99394.83;231873;197;138425;-62
2024/02/20 05:42:47;;;;;;;7.70;4.00;;;;;;;8.58;73.44;99394.93;231935;203;153347;-65
2024/02/20 05:47:51;;;;;;;5.30;3.70;;;;;;;8.57;73.67;99395.50;231940;201;138492;-66
2024/02/20 05:52:55;;;;;;;6.40;4.10;;;;;;;8.61;73.80;99394.97;232017;197;137492;-65
2024/02/20 05:57:59;;;;;;;6.90;4.70;;;;;;;8.66;73.60;99402.13;231969;197;153243;-64
2024/02/20 06:03:03;;;;;;;6.70;4.40;;;;;;;8.72;73.69;99405.76;231955;204;138105;-65
2024/02/20 06:08:06;;;;;;;5.30;4.10;;;;;;;8.73;73.66;99411.04;231980;200;138596;-65
2024/02/20 06:13:09;;;;;;;6.70;4.50;;;;;;;8.71;73.65;99416.58;231817;198;153223;-65
2024/02/20 06:18:12;;;;;;;6.30;4.20;;;;;;;8.71;73.54;99417.12;232041;197;138636;-65
2024/02/20 06:23:16;;;;;;;3.70;3.20;;;;;;;8.64;73.62;99424.02;231921;198;137224;-65
2024/02/20 06:28:20;;;;;;;6.20;3.40;;;;;;;8.67;73.70;99422.11;232055;198;153350;-64
2024/02/20 06:33:23;;;;;;;5.40;3.80;;;;;;;8.78;73.48;99425.12;231929;203;138550;-65
2024/02/20 06:38:33;;;;;;;5.10;4.10;;;;;;;8.86;73.13;99428.05;231809;202;137259;-66
2024/02/20 06:43:36;;;;;;;5.90;4.00;;;;;;;8.90;72.86;99428.95;231878;198;153702;-67
2024/02/20 06:48:40;;;;;;;5.40;3.80;;;;;;;8.95;72.83;99426.02;231952;201;138851;-66
2024/02/20 06:53:43;;;;;;;7.20;3.90;;;;;;;8.94;72.74;99425.91;231879;205;137473;-66
2024/02/20 06:58:48;;;;;;;8.00;4.10;;;;;;;8.90;72.81;99427.53;232076;201;153937;-65
2024/02/20 07:03:53;;;;;;;8.00;3.40;;;;;;;8.90;72.74;99431.24;232125;204;138928;-64
2024/02/20 07:08:56;;;;;;;6.10;3.60;;;;;;;8.98;72.75;99435.25;231847;201;138038;-64
2024/02/20 07:14:00;;;;;;;6.40;3.90;;;;;;;9.17;72.28;99435.05;231944;201;154163;-64
2024/02/20 07:19:03;;;;;;;5.70;3.90;;;;;;;9.26;71.56;99441.65;231872;201;138350;-63
2024/02/20 07:24:07;;;;;;;5.60;3.60;;;;;;;9.31;71.40;99439.27;231828;200;137771;-64
2024/02/20 07:29:11;;;;;;;5.50;3.90;;;;;;;9.36;70.90;99439.92;231901;204;153687;-64
2024/02/20 07:34:14;;;;;;;6.50;3.60;;;;;;;9.34;70.69;99439.84;232094;198;138331;-64
2024/02/20 07:39:18;;;;;;;6.30;3.40;;;;;;;9.33;70.55;99443.09;231952;204;141686;-64
2024/02/20 07:44:21;;;;;;;7.30;3.30;;;;;;;9.28;70.43;99446.00;231927;198;153904;-64
2024/02/20 07:49:24;;;;;;;5.30;2.90;;;;;;;9.31;70.13;99446.73;231756;198;138347;-63
2024/02/20 07:54:28;;;;;;;4.70;3.30;;;;;;;9.38;70.02;99441.41;231888;205;137973;-63
2024/02/20 07:59:32;;;;;;;4.70;3.50;;;;;;;9.45;70.03;99444.59;231776;199;153504;-63
2024/02/20 08:04:36;;;;;;;5.50;3.30;;;;;;;9.48;69.96;99449.61;231979;201;139060;-61
2024/02/20 08:09:39;;;;;;;6.00;3.20;;;;;;;9.43;69.83;99453.77;231877;205;138298;-62
2024/02/20 08:14:42;;;;;;;4.80;3.00;;;;;;;9.41;69.96;99449.38;231973;198;153827;-62
2024/02/20 08:19:50;;;;;;;5.40;3.40;;;;;;;9.47;70.06;99447.15;231810;201;138963;-63
2024/02/20 08:24:54;;;;;;;4.80;3.20;;;;;;;9.48;70.09;99451.54;231866;201;137847;-63
2024/02/20 08:29:57;;;;;;;4.30;2.90;;;;;;;9.42;70.25;99453.42;232015;198;153299;-61
2024/02/20 08:35:00;;;;;;;7.00;3.30;;;;;;;9.44;70.48;99454.91;231851;204;139588;-62
2024/02/20 08:40:04;;;;;;;4.70;3.00;;;;;;;9.50;70.57;99455.35;231862;198;138402;-63
2024/02/20 08:45:08;;;;;;;6.30;3.60;;;;;;;9.54;70.79;99454.45;231971;202;154215;-63
2024/02/20 08:50:16;;;;;;;6.40;3.70;;;;;;;9.61;70.60;99457.94;231861;205;139226;-61
2024/02/20 08:55:20;;;;;;;6.70;3.80;;;;;;;9.65;70.74;99452.80;231731;198;139698;-62
2024/02/20 09:00:24;;;;;;;6.50;3.80;;;;;;;9.67;70.79;99456.74;231837;199;153393;-62
2024/02/20 09:05:27;;;;;;;6.50;4.00;;;;;;;9.66;70.86;99461.80;231943;198;137817;-61
2024/02/20 09:10:31;;;;;;;7.80;4.10;;;;;;;9.70;70.69;99462.42;232015;197;137441;-61
2024/02/20 09:15:35;;;;;;;92.30;56.80;;;;;;;9.75;70.74;99466.29;231830;201;152958;-63
2024/02/20 09:20:38;;;;;;;10.80;5.00;;;;;;;9.84;70.68;99471.45;231950;197;149510;-63
2024/02/20 09:25:43;;;;;;;5.80;4.00;;;;;;;9.82;70.44;99472.82;231923;198;138541;-63
2024/02/20 09:30:47;;;;;;;5.80;3.80;;;;;;;9.81;70.47;99474.48;231780;204;153277;-61
2024/02/20 09:35:51;;;;;;;4.80;3.30;;;;;;;9.72;70.52;99476.33;231867;204;138603;-62
2024/02/20 09:40:54;;;;;;;6.30;3.20;;;;;;;9.70;70.80;99476.63;231702;198;138733;-62
2024/02/20 09:46:11;;;;;;;5.60;3.40;;;;;;;9.68;70.91;99474.44;231758;203;153321;-60
2024/02/20 09:51:19;;;;;;;5.50;3.10;;;;;;;9.67;71.11;99475.38;231636;198;138036;-62
2024/02/20 09:56:23;;;;;;;6.90;3.50;;;;;;;9.69;70.95;99482.17;231754;198;138206;-61
2024/02/20 10:01:28;;;;;;;4.80;3.30;;;;;;;9.68;71.11;99482.40;231860;198;153050;-61
2024/02/20 10:06:32;;;;;;;5.60;3.60;;;;;;;9.66;71.20;99479.46;231610;198;138269;-62
2024/02/20 10:11:36;;;;;;;5.20;3.30;;;;;;;9.71;70.82;99480.45;231790;202;138789;-61
2024/02/20 10:16:40;;;;;;;5.40;3.20;;;;;;;9.70;70.60;99483.36;232023;204;153852;-59
2024/02/20 10:21:51;;;;;;;4.90;3.80;;;;;;;9.69;71.20;99481.46;231803;204;137678;-60
2024/02/20 10:26:54;;;;;;;7.70;4.60;;;;;;;9.72;71.23;99474.41;231715;198;140399;-59
2024/02/20 10:31:57;;;;;;;5.70;4.20;;;;;;;9.77;71.32;99470.45;231801;198;153747;-60
2024/02/20 10:37:05;;;;;;;7.10;4.30;;;;;;;9.72;71.29;99470.65;231646;202;140080;-60
2024/02/20 10:42:09;;;;;;;7.80;4.40;;;;;;;9.65;71.54;99467.15;231786;202;139445;-59
2024/02/20 10:47:16;;;;;;;7.30;5.00;;;;;;;9.70;71.80;99461.40;231759;201;153443;-59
2024/02/20 10:52:20;;;;;;;8.10;5.00;;;;;;;9.78;71.90;99456.92;231859;205;142546;-60
2024/02/20 10:57:23;;;;;;;9.30;5.40;;;;;;;9.85;71.62;99460.40;231786;201;138336;-59
2024/02/20 11:02:27;;;;;;;10.50;5.50;;;;;;;9.82;71.95;99457.44;231781;204;153098;-59
2024/02/20 11:07:31;;;;;;;7.10;5.30;;;;;;;9.82;72.54;99457.39;231818;201;138515;-60
2024/02/20 11:12:35;;;;;;;9.30;6.00;;;;;;;9.84;72.47;99452.15;231838;204;138626;-56
2024/02/20 11:17:40;;;;;;;8.30;5.90;;;;;;;9.88;72.58;99442.75;231783;201;154259;-63
2024/02/20 11:22:44;;;;;;;10.20;6.40;;;;;;;9.90;72.34;99440.86;231946;204;137440;-63
2024/02/20 11:27:48;;;;;;;8.10;5.90;;;;;;;9.88;72.68;99439.35;231794;202;138508;-63
2024/02/20 11:32:54;;;;;;;15.20;8.60;;;;;;;9.92;72.92;99437.91;231779;204;154416;-62
2024/02/20 11:37:58;;;;;;;9.10;5.90;;;;;;;9.95;72.67;99438.45;231645;202;138092;-62
2024/02/20 11:43:04;;;;;;;9.10;6.30;;;;;;;9.96;72.39;99437.53;231634;202;138515;-63
2024/02/20 11:48:12;;;;;;;9.80;6.80;;;;;;;9.93;72.62;99434.30;231731;199;153859;-63
2024/02/20 11:53:17;;;;;;;10.80;6.20;;;;;;;9.92;72.42;99429.27;231841;197;138865;-63
2024/02/20 11:58:22;;;;;;;8.20;5.90;;;;;;;9.95;72.43;99425.17;231876;198;138949;-63
2024/02/20 12:03:35;;;;;;;8.10;5.90;;;;;;;10.02;72.45;99424.29;231829;204;153792;-62
2024/02/20 12:08:44;;;;;;;9.80;5.80;;;;;;;10.11;72.04;99419.86;231668;201;137769;-63
2024/02/20 12:13:52;;;;;;;9.10;5.60;;;;;;;10.17;71.61;99417.06;231821;202;138202;-64
2024/02/20 12:18:57;;;;;;;9.30;5.60;;;;;;;10.28;71.27;99406.02;231749;202;153186;-63
2024/02/20 12:24:08;;;;;;;8.40;4.90;;;;;;;10.47;70.84;99407.13;231717;198;140209;-65
2024/02/20 12:29:12;;;;;;;8.50;5.30;;;;;;;10.55;69.75;99414.30;231847;201;138244;-65
2024/02/20 12:34:17;;;;;;;5.70;4.60;;;;;;;10.51;69.16;99415.78;231952;204;153294;-64
2024/02/20 12:39:25;;;;;;;;;;;;;;;10.50;69.05;99418.13;231706;201;137723;-63
2024/02/20 12:44:28;;;;;;;10.10;5.30;;;;;;;10.53;68.99;99416.36;231706;198;137022;-68
2024/02/20 12:49:31;;;;;;;5.90;4.50;;;;;;;10.63;68.43;99408.13;231716;201;154125;-69
2024/02/20 12:54:36;;;;;;;6.90;4.90;;;;;;;10.66;68.28;99410.13;231778;197;138790;-67
2024/02/20 12:59:39;;;;;;;7.50;5.30;;;;;;;10.70;67.93;99404.10;231764;203;138835;-69
2024/02/20 13:04:42;;;;;;;7.60;5.10;;;;;;;10.68;68.02;99400.08;231922;197;152584;-71
2024/02/20 13:09:45;;;;;;;7.90;5.30;;;;;;;10.66;67.92;99397.16;231638;200;137626;-72
2024/02/20 13:14:49;;;;;;;7.70;4.80;;;;;;;10.74;67.87;99397.99;231698;198;138467;-71
2024/02/20 13:19:52;;;;;;;6.70;4.70;;;;;;;10.75;67.61;99400.77;231860;204;154816;-70
2024/02/20 13:24:56;;;;;;;6.70;4.60;;;;;;;10.80;67.62;99394.95;231669;204;138316;-70
2024/02/20 13:30:00;;;;;;;8.50;5.20;;;;;;;10.94;67.12;99395.42;231788;198;138798;-72
2024/02/20 13:35:04;;;;;;;6.50;4.90;;;;;;;11.04;67.17;99388.45;231865;198;156111;-72
2024/02/20 13:40:08;;;;;;;9.40;4.80;;;;;;;11.31;66.63;99388.24;231854;198;138316;-68
2024/02/20 13:45:11;;;;;;;9.70;4.90;;;;;;;11.45;65.99;99379.97;231615;198;137968;-70
2024/02/20 13:50:15;;;;;;;7.30;5.10;;;;;;;11.37;65.54;99384.32;231825;201;155141;-72
2024/02/20 13:55:18;;;;;;;8.90;5.50;;;;;;;11.23;65.61;99385.89;231724;204;137104;-66
2024/02/20 14:00:21;;;;;;;8.10;5.10;;;;;;;11.18;66.09;99392.80;231952;204;137775;-68
2024/02/20 14:05:24;;;;;;;6.30;4.40;;;;;;;11.10;65.85;99393.92;231789;197;154510;-67
2024/02/20 14:10:29;;;;;;;7.20;4.90;;;;;;;11.09;65.85;99393.81;231850;197;138641;-65
2024/02/20 14:15:32;;;;;;;9.50;5.60;;;;;;;11.09;65.98;99392.70;231872;202;138011;-71
2024/02/20 14:20:36;;;;;;;8.40;5.90;;;;;;;11.12;66.07;99392.94;231855;200;154263;-70
2024/02/20 14:25:40;;;;;;;6.90;5.30;;;;;;;11.12;65.85;99395.75;231780;201;138144;-70
2024/02/20 14:30:44;;;;;;;8.80;6.20;;;;;;;11.04;66.61;99406.55;231819;204;138753;-71
2024/02/20 14:36:00;;;;;;;;;;;;;;;10.98;67.97;99425.90;231779;201;153053;-68
2024/02/20 14:41:03;;;;;;;4.90;3.40;;;;;;;10.70;67.51;99418.27;231902;200;138497;-69
2024/02/20 14:46:07;;;;;;;3.80;2.90;;;;;;;10.34;68.23;99420.23;231810;202;139228;-68
2024/02/20 14:51:11;;;;;;;3.40;2.50;;;;;;;10.14;68.84;99416.88;231824;204;154629;-67
2024/02/20 14:56:15;;;;;;;4.40;2.40;;;;;;;10.09;69.16;99419.11;231770;202;139059;-69
2024/02/20 15:01:23;;;;;;;7.30;3.40;;;;;;;10.17;69.67;99421.17;231679;204;138477;-61
2024/02/20 15:06:27;;;;;;;3.00;2.00;;;;;;;10.33;69.31;99428.85;231816;201;153412;-62
2024/02/20 15:11:30;;;;;;;3.10;1.50;;;;;;;10.31;68.84;99438.14;232040;201;143692;-61
2024/02/20 15:16:34;;;;;;;3.30;1.70;;;;;;;10.20;68.66;99437.85;232370;205;137818;-63
2024/02/20 15:21:37;;;;;;;3.10;1.70;;;;;;;10.15;68.64;99435.45;232141;204;153276;-64
2024/02/20 15:26:40;;;;;;;2.80;1.70;;;;;;;10.03;68.74;99437.35;231842;197;137708;-63
2024/02/20 15:31:47;;;;;;;4.00;2.00;;;;;;;9.93;69.11;99445.30;231951;198;138515;-62
2024/02/20 15:36:50;;;;;;;3.20;2.20;;;;;;;9.85;69.54;99441.83;231902;204;153415;-64
2024/02/20 15:41:53;;;;;;;4.90;2.20;;;;;;;9.86;69.71;99445.84;231697;198;138727;-61
2024/02/20 15:46:57;;;;;;;4.80;3.20;;;;;;;9.94;69.93;99450.02;231868;202;137476;-62
2024/02/20 15:52:01;;;;;;;4.70;2.90;;;;;;;10.01;69.82;99450.91;231766;198;153379;-64
2024/02/20 15:57:04;;;;;;;5.30;3.50;;;;;;;9.98;69.97;99452.66;231736;205;138695;-62
2024/02/20 16:02:08;;;;;;;5.40;4.00;;;;;;;9.89;69.89;99452.77;231813;199;137955;-62
2024/02/20 16:07:11;;;;;;;343.10;226.10;;;;;;;9.82;70.67;99460.59;231871;198;155314;-62
2024/02/20 16:12:15;;;;;;;13.80;7.40;;;;;;;9.87;70.70;99461.20;231864;197;138361;-68
2024/02/20 16:17:21;;;;;;;8.50;5.40;;;;;;;9.84;70.34;99462.99;231662;201;141585;-67
2024/02/20 16:22:24;;;;;;;7.20;3.90;;;;;;;9.76;70.46;99466.06;231969;204;152322;-66
2024/02/20 16:27:28;;;;;;;6.00;3.50;;;;;;;9.70;70.55;99464.74;231700;201;138287;-68
2024/02/20 16:32:31;;;;;;;5.20;3.80;;;;;;;9.73;70.59;99478.82;231879;198;138893;-68
2024/02/20 16:37:35;;;;;;;9.50;4.30;;;;;;;9.71;70.48;99483.11;231729;201;154346;-68
2024/02/20 16:42:38;;;;;;;6.00;3.90;;;;;;;9.71;70.54;99489.15;231774;204;138788;-68
2024/02/20 16:47:42;;;;;;;8.10;4.70;;;;;;;9.71;70.45;99487.41;231808;198;137796;-70
2024/02/20 16:52:45;;;;;;;6.80;4.00;;;;;;;9.65;70.32;99495.83;232056;198;153224;-68
2024/02/20 16:57:49;;;;;;;7.50;4.70;;;;;;;9.59;70.35;99501.63;231838;197;138088;-69
2024/02/20 17:02:54;;;;;;;6.90;4.90;;;;;;;9.56;70.42;99509.23;231834;204;138711;-70
2024/02/20 17:07:58;;;;;;;8.00;4.70;;;;;;;9.58;70.27;99508.06;231876;201;153626;-68
2024/02/20 17:13:01;;;;;;;7.80;5.20;;;;;;;9.53;70.00;99505.45;231786;198;138618;-69
2024/02/20 17:18:04;;;;;;;6.90;5.60;;;;;;;9.49;70.07;99510.81;231936;198;138639;-67
2024/02/20 17:23:08;;;;;;;8.70;6.80;;;;;;;9.55;69.91;99521.34;231890;201;153388;-68
2024/02/20 17:28:11;;;;;;;10.70;7.30;;;;;;;9.62;69.96;99522.75;231829;199;137545;-68
2024/02/20 17:33:15;;;;;;;8.90;6.50;;;;;;;9.65;69.77;99519.41;231905;198;138295;-70
2024/02/20 17:38:21;;;;;;;7.70;5.20;;;;;;;9.62;69.61;99520.27;231878;198;153412;-67
2024/02/20 17:43:25;;;;;;;6.80;4.90;;;;;;;9.58;69.62;99525.61;231678;197;138659;-72
2024/02/20 17:48:28;;;;;;;10.70;6.20;;;;;;;9.52;69.61;99528.71;231954;204;137632;-69
2024/02/20 17:53:32;;;;;;;9.70;6.60;;;;;;;9.46;69.55;99531.51;231928;204;155576;-68
2024/02/20 17:58:35;;;;;;;10.60;6.60;;;;;;;9.39;69.65;99534.84;231818;202;137967;-70
2024/02/20 18:03:40;;;;;;;9.90;6.40;;;;;;;9.37;69.83;99533.36;231934;198;138920;-66
2024/02/20 18:08:43;;;;;;;11.90;7.70;;;;;;;9.42;69.91;99536.15;231716;198;154245;-70
2024/02/20 18:13:47;;;;;;;13.50;9.10;;;;;;;9.51;70.17;99532.67;231659;202;138759;-68
2024/02/20 18:18:54;;;;;;;15.30;8.90;;;;;;;9.59;69.67;99531.23;231985;198;137362;-69
2024/02/20 18:23:57;;;;;;;12.60;8.30;;;;;;;9.58;69.45;99537.83;231717;198;153694;-70
2024/02/20 18:29:00;;;;;;;13.40;8.50;;;;;;;9.46;69.56;99542.45;231977;204;138677;-71
2024/02/20 18:34:04;;;;;;;13.00;9.10;;;;;;;9.43;69.78;99545.98;231778;201;137327;-69
2024/02/20 18:39:09;;;;;;;11.90;8.50;;;;;;;9.42;69.67;99551.20;231841;201;154562;-69
2024/02/20 18:44:13;;;;;;;12.80;8.90;;;;;;;9.37;69.80;99566.11;231394;198;139233;-70
2024/02/20 18:49:16;;;;;;;12.70;8.60;;;;;;;9.36;69.91;99567.26;231744;202;137581;-71
2024/02/20 18:54:20;;;;;;;13.40;9.30;;;;;;;9.41;69.95;99574.09;232004;204;153404;-69
2024/02/20 18:59:23;;;;;;;15.00;9.60;;;;;;;9.44;69.78;99581.91;231877;204;138683;-60
2024/02/20 19:04:26;;;;;;;16.50;10.40;;;;;;;9.40;69.74;99586.33;231853;199;138593;-59
2024/02/20 19:09:30;;;;;;;14.20;10.00;;;;;;;9.41;69.77;99587.92;231603;198;154468;-59
2024/02/20 19:14:33;;;;;;;15.40;10.50;;;;;;;9.39;69.89;99592.63;231742;198;138019;-61
2024/02/20 19:19:36;;;;;;;16.00;11.10;;;;;;;9.38;69.76;99589.80;231465;201;138762;-61
2024/02/20 19:24:40;;;;;;;18.10;10.70;;;;;;;9.37;69.78;99588.60;231835;201;153140;-61
2024/02/20 19:29:44;;;;;;;17.10;11.20;;;;;;;9.39;69.62;99586.04;231801;201;137412;-60
2024/02/20 19:34:47;;;;;;;602.10;424.10;;;;;;;9.35;69.75;99586.80;231969;201;138340;-65
2024/02/20 19:39:50;;;;;;;21.70;13.70;;;;;;;9.46;70.15;99590.14;231815;198;153241;-65
2024/02/20 19:44:53;;;;;;;17.70;11.10;;;;;;;9.45;69.15;99594.96;231822;198;139675;-65
2024/02/20 19:49:57;;;;;;;15.70;11.40;;;;;;;9.42;69.02;99594.02;231747;198;137469;-65
2024/02/20 19:55:00;;;;;;;16.00;11.80;;;;;;;9.47;68.88;99593.09;231786;200;154242;-65
2024/02/20 20:00:06;;;;;;;17.50;11.70;;;;;;;9.42;68.69;99586.63;231792;204;138612;-64
2024/02/20 20:05:09;;;;;;;14.30;10.30;;;;;;;9.33;68.85;99585.84;232039;201;137490;-66
2024/02/20 20:10:13;;;;;;;20.40;13.50;;;;;;;9.30;68.97;99591.63;231850;198;153189;-65
2024/02/20 20:15:17;;;;;;;15.70;11.70;;;;;;;9.25;69.09;99593.61;231795;204;138595;-67
2024/02/20 20:20:20;;;;;;;35.50;25.60;;;;;;;9.24;69.26;99593.30;231781;198;137784;-66
2024/02/20 20:25:24;;;;;;;14.40;10.80;;;;;;;9.27;69.26;99598.67;231602;202;152933;-65
2024/02/20 20:30:27;;;;;;;15.20;10.20;;;;;;;9.21;68.98;99598.42;231777;201;139233;-65
2024/02/20 20:35:32;;;;;;;14.70;11.10;;;;;;;9.29;68.72;99598.59;231842;198;139811;-65
2024/02/20 20:40:35;;;;;;;13.10;11.00;;;;;;;9.35;68.42;99595.12;231802;201;153828;-67
2024/02/20 20:45:38;;;;;;;15.50;11.40;;;;;;;9.37;68.26;99600.48;231949;201;139812;-69
2024/02/20 20:50:42;;;;;;;15.50;11.60;;;;;;;9.35;68.32;99597.77;231837;204;138687;-71
2024/02/20 20:55:45;;;;;;;16.30;12.00;;;;;;;9.36;68.29;99597.87;231631;198;153209;-71
2024/02/20 21:00:49;;;;;;;15.20;11.60;;;;;;;9.31;68.26;99605.89;231684;198;138554;-71
2024/02/20 21:05:52;;;;;;;13.50;10.60;;;;;;;9.24;68.46;99605.89;231915;205;141118;-66
2024/02/20 21:10:55;;;;;;;13.60;10.50;;;;;;;9.18;68.51;99613.26;232071;200;153019;-66
2024/02/20 21:15:59;;;;;;;13.60;9.80;;;;;;;9.13;68.60;99618.45;231916;198;139082;-64
2024/02/20 21:21:07;;;;;;;11.90;8.00;;;;;;;9.07;68.76;99618.91;232628;200;138578;-64
2024/02/20 21:26:10;;;;;;;10.60;7.00;;;;;;;9.02;68.62;99618.61;232481;200;154046;-66
2024/02/20 21:31:14;;;;;;;8.60;6.10;;;;;;;9.05;68.40;99619.89;231817;201;138122;-64
2024/02/20 21:36:17;;;;;;;6.60;4.70;;;;;;;9.10;68.16;99621.80;231907;197;138596;-65
2024/02/20 21:41:20;;;;;;;6.20;4.00;;;;;;;9.13;67.51;99621.83;231733;198;153799;-64
2024/02/20 21:46:24;;;;;;;5.40;2.80;;;;;;;9.13;67.03;99628.02;231788;198;140027;-67
2024/02/20 21:51:28;;;;;;;6.70;2.80;;;;;;;9.11;66.79;99628.64;231840;198;137505;-67
2024/02/20 21:56:33;;;;;;;6.50;2.90;;;;;;;9.05;66.77;99633.89;231937;197;155850;-66
2024/02/20 22:01:37;;;;;;;5.20;2.40;;;;;;;9.03;66.67;99635.17;231651;204;138637;-67
2024/02/20 22:06:40;;;;;;;4.90;2.80;;;;;;;8.95;66.77;99640.53;231814;198;137304;-68
2024/02/20 22:11:44;;;;;;;5.70;3.40;;;;;;;8.85;67.00;99639.38;231852;198;153941;-67
2024/02/20 22:16:47;;;;;;;6.20;2.80;;;;;;;8.80;67.20;99636.40;231931;201;137547;-67
2024/02/20 22:21:51;;;;;;;5.40;2.80;;;;;;;8.79;67.36;99642.31;231853;203;140154;-69
2024/02/20 22:26:54;;;;;;;5.50;3.00;;;;;;;8.74;67.36;99646.58;231769;204;153109;-67
2024/02/20 22:31:58;;;;;;;7.60;2.90;;;;;;;8.65;67.60;99650.38;231758;198;138036;-68
2024/02/20 22:37:01;;;;;;;6.50;2.90;;;;;;;8.63;67.62;99654.16;231657;205;138374;-67
2024/02/20 22:42:05;;;;;;;5.70;2.70;;;;;;;8.60;67.78;99655.17;231668;198;154126;-66
2024/02/20 22:47:08;;;;;;;8.30;3.60;;;;;;;8.52;67.77;99658.71;231805;201;138165;-66
2024/02/20 22:52:12;;;;;;;9.60;4.20;;;;;;;8.50;68.06;99662.35;231847;199;137526;-66
2024/02/20 22:57:15;;;;;;;7.50;3.80;;;;;;;8.55;68.07;99664.58;231420;205;154097;-66
2024/02/20 23:02:19;;;;;;;9.30;3.90;;;;;;;8.62;68.06;99668.00;231705;200;137049;-66
2024/02/20 23:07:24;;;;;;;8.20;4.00;;;;;;;8.58;67.81;99672.08;231749;205;137258;-67
2024/02/20 23:12:27;;;;;;;8.90;3.80;;;;;;;8.46;67.79;99675.21;231775;199;153347;-65
2024/02/20 23:17:31;;;;;;;8.00;4.10;;;;;;;8.42;67.71;99674.73;231770;198;139486;-66
2024/02/20 23:22:35;;;;;;;7.40;3.30;;;;;;;8.36;67.64;99673.86;231787;199;138162;-70
2024/02/20 23:27:38;;;;;;;7.00;3.50;;;;;;;8.35;67.31;99681.17;231818;202;153385;-69
2024/02/20 23:32:41;;;;;;;9.00;4.20;;;;;;;8.32;67.42;99685.53;231773;199;137467;-69
2024/02/20 23:37:48;;;;;;;9.80;4.30;;;;;;;8.24;67.39;99689.21;231711;205;138892;-68
2024/02/20 23:42:51;;;;;;;10.90;3.50;;;;;;;8.18;66.98;99691.45;231714;205;153450;-68